Time;durP1;ratioP1;P1;durP2;ratioP2;P2;SDS_P1;SDS_P2;PMS_P1;PMS_P2;Temp;Humidity;BMP_temperature;BMP_pressure;BME280_temperature;BME280_humidity;BME280_pressure;Samples;Min_cycle;Max_cycle;Signal;HPM_P1;HPM_P2
2022/03/19 00:00:11;;;;;;;;;;;21.90;39.90;;;;;;5078323;28;19956;-54
2022/03/19 00:02:36;;;;;;;;;;;21.80;39.80;;;;;;5078060;28;19912;-55
2022/03/19 00:05:02;;;;;;;;;;;21.80;39.90;;;;;;5077811;28;19935;-55
2022/03/19 00:07:27;;;;;;;;;;;21.80;39.90;;;;;;5077821;28;19931;-55
2022/03/19 00:09:53;;;;;;;;;;;21.80;40.00;;;;;;5071446;28;20388;-54
2022/03/19 00:12:19;;;;;;;;;;;21.80;40.00;;;;;;5077631;28;19920;-55
2022/03/19 00:14:45;;;;;;;;;;;21.70;39.90;;;;;;5078337;28;19962;-55
2022/03/19 00:17:11;;;;;;;;;;;21.70;39.90;;;;;;5077687;28;20326;-55
2022/03/19 00:19:37;;;;;;;;;;;21.80;40.00;;;;;;5078532;28;19924;-54
2022/03/19 00:22:03;;;;;;;;;;;21.70;39.80;;;;;;5077259;28;19936;-54
2022/03/19 00:24:28;;;;;;;;;;;21.70;39.80;;;;;;5078274;28;20344;-54
2022/03/19 00:26:54;;;;;;;;;;;21.70;39.80;;;;;;5077039;28;19923;-54
2022/03/19 00:29:19;;;;;;;;;;;21.70;39.80;;;;;;5077024;28;19909;-54
2022/03/19 00:31:45;;;;;;;;;;;21.70;39.80;;;;;;5077745;28;19912;-54
2022/03/19 00:34:10;;;;;;;;;;;21.70;39.80;;;;;;5078163;28;19920;-54
2022/03/19 00:36:36;;;;;;;;;;;21.70;39.90;;;;;;5077157;28;19923;-54
2022/03/19 00:39:01;;;;;;;;;;;21.70;39.90;;;;;;5078028;28;19908;-54
2022/03/19 00:41:27;;;;;;;;;;;21.60;39.80;;;;;;5077591;28;19913;-54
2022/03/19 00:43:52;;;;;;;;;;;21.60;39.90;;;;;;5077802;28;19916;-54
2022/03/19 00:46:19;;;;;;;;;;;21.60;39.80;;;;;;5077799;28;20029;-54
2022/03/19 00:48:44;;;;;;;;;;;21.60;39.80;;;;;;5078321;28;19962;-54
2022/03/19 00:51:10;;;;;;;;;;;21.60;39.90;;;;;;5077386;28;19913;-54
2022/03/19 00:53:35;;;;;;;;;;;21.60;39.80;;;;;;5077699;28;20000;-54
2022/03/19 00:56:01;;;;;;;;;;;21.60;39.80;;;;;;5073392;28;19916;-54
2022/03/19 00:58:26;;;;;;;;;;;21.60;39.80;;;;;;5060025;28;19917;-53
2022/03/19 01:00:52;;;;;;;;;;;21.50;39.70;;;;;;5054954;28;20436;-54
2022/03/19 01:03:17;;;;;;;;;;;21.50;39.70;;;;;;5064235;28;20398;-54
2022/03/19 01:05:42;;;;;;;;;;;21.50;39.60;;;;;;5073919;28;20283;-54
2022/03/19 01:08:08;;;;;;;;;;;21.50;39.60;;;;;;5074142;28;20297;-54
2022/03/19 01:10:35;;;;;;;;;;;21.50;39.70;;;;;;5074093;28;20054;-53
2022/03/19 01:13:01;;;;;;;;;;;21.40;39.60;;;;;;5073962;28;19973;-53
2022/03/19 01:15:27;;;;;;;;;;;21.40;39.60;;;;;;5073995;28;19908;-53
2022/03/19 01:17:52;;;;;;;;;;;21.40;39.70;;;;;;5074322;28;19919;-54
2022/03/19 01:20:18;;;;;;;;;;;21.40;39.60;;;;;;5073538;28;20372;-54
2022/03/19 01:22:43;;;;;;;;;;;21.30;39.60;;;;;;5074409;28;19909;-54
2022/03/19 01:25:09;;;;;;;;;;;21.30;39.50;;;;;;5073053;28;19962;-54
2022/03/19 01:27:35;;;;;;;;;;;21.30;39.60;;;;;;5072909;28;20271;-54
2022/03/19 01:30:01;;;;;;;;;;;21.30;39.60;;;;;;5072924;28;19919;-54
2022/03/19 01:32:26;;;;;;;;;;;21.20;39.50;;;;;;5073665;28;19913;-54
2022/03/19 01:34:53;;;;;;;;;;;21.20;39.50;;;;;;5072004;28;19971;-54
2022/03/19 01:37:19;;;;;;;;;;;21.20;39.60;;;;;;5070508;28;20361;-54
2022/03/19 01:39:44;;;;;;;;;;;21.20;39.60;;;;;;5074111;28;19955;-54
2022/03/19 01:42:10;;;;;;;;;;;21.10;39.50;;;;;;5073209;28;20078;-54
2022/03/19 01:44:35;;;;;;;;;;;21.10;39.40;;;;;;5073737;28;20007;-54
2022/03/19 01:47:02;;;;;;;;;;;21.10;39.40;;;;;;5073417;28;19916;-54
2022/03/19 01:49:28;;;;;;;;;;;21.10;39.40;;;;;;5073762;28;19912;-55
2022/03/19 01:51:53;;;;;;;;;;;21.10;39.40;;;;;;5072808;28;20429;-55
2022/03/19 01:54:23;;;;;;;;;;;21.10;39.40;;;;;;5073710;28;20033;-54
2022/03/19 01:56:48;;;;;;;;;;;21.00;39.30;;;;;;5071641;28;19917;-55
2022/03/19 01:59:14;;;;;;;;;;;21.00;39.30;;;;;;5073370;28;19920;-54
2022/03/19 02:01:39;;;;;;;;;;;21.00;39.30;;;;;;5073193;28;20141;-56
2022/03/19 02:04:05;;;;;;;;;;;21.00;39.30;;;;;;5073209;28;20394;-54
2022/03/19 02:06:30;;;;;;;;;;;21.00;39.30;;;;;;5072187;28;19932;-54
2022/03/19 02:08:56;;;;;;;;;;;21.00;39.20;;;;;;5067581;28;19916;-54
2022/03/19 02:11:21;;;;;;;;;;;21.00;39.20;;;;;;5070779;28;19913;-54
2022/03/19 02:13:47;;;;;;;;;;;21.00;39.20;;;;;;5073104;28;20265;-54
2022/03/19 02:16:12;;;;;;;;;;;21.00;39.20;;;;;;5072882;28;20367;-55
2022/03/19 02:18:38;;;;;;;;;;;21.00;39.10;;;;;;5073015;28;20288;-54
2022/03/19 02:21:03;;;;;;;;;;;21.20;39.20;;;;;;5072805;28;19912;-55
2022/03/19 02:26:12;;;;;;;;;;;21.50;38.80;;;;;;5052867;28;20022;-54
2022/03/19 02:28:38;;;;;;;;;;;21.70;38.70;;;;;;5057721;28;19913;-55
2022/03/19 02:31:03;;;;;;;;;;;21.80;38.40;;;;;;5072752;28;19919;-54
2022/03/19 02:33:29;;;;;;;;;;;22.00;38.20;;;;;;5072915;28;20447;-54
2022/03/19 02:35:54;;;;;;;;;;;22.20;37.80;;;;;;5072358;28;20334;-55
2022/03/19 02:38:20;;;;;;;;;;;22.40;37.60;;;;;;5072317;28;20019;-55
2022/03/19 02:40:45;;;;;;;;;;;22.50;37.30;;;;;;5072518;28;19931;-54
2022/03/19 02:43:11;;;;;;;;;;;22.60;37.00;;;;;;5071935;28;19923;-54
2022/03/19 02:45:36;;;;;;;;;;;22.70;36.90;;;;;;5072680;28;19970;-55
2022/03/19 02:48:02;;;;;;;;;;;22.60;36.70;;;;;;5072326;28;19965;-54
2022/03/19 02:50:36;;;;;;;;;;;22.60;36.70;;;;;;5071567;28;19959;-54
2022/03/19 02:53:02;;;;;;;;;;;22.60;36.70;;;;;;5072751;28;20292;-54
2022/03/19 02:55:32;;;;;;;;;;;22.60;36.80;;;;;;5071121;28;20015;-55
2022/03/19 02:57:57;;;;;;;;;;;22.50;36.90;;;;;;5058276;28;19913;-55
2022/03/19 03:00:23;;;;;;;;;;;22.50;37.00;;;;;;5069018;28;19965;-54
2022/03/19 03:02:48;;;;;;;;;;;22.40;37.00;;;;;;5072485;28;19954;-54
2022/03/19 03:05:13;;;;;;;;;;;22.40;37.10;;;;;;5071415;28;19916;-54
2022/03/19 03:07:39;;;;;;;;;;;22.30;37.20;;;;;;5072038;28;19924;-55
2022/03/19 03:10:05;;;;;;;;;;;22.20;37.20;;;;;;5071878;28;19916;-55
2022/03/19 03:12:31;;;;;;;;;;;22.20;37.30;;;;;;5071748;28;19919;-54
2022/03/19 03:14:56;;;;;;;;;;;22.10;37.30;;;;;;5071942;28;19916;-55
2022/03/19 03:17:22;;;;;;;;;;;22.10;37.40;;;;;;5071298;28;19913;-55
2022/03/19 03:19:47;;;;;;;;;;;22.00;37.40;;;;;;5071898;28;19913;-54
2022/03/19 03:22:13;;;;;;;;;;;22.00;37.60;;;;;;5071435;28;19970;-55
2022/03/19 03:24:38;;;;;;;;;;;22.00;37.60;;;;;;5070936;28;19919;-55
2022/03/19 03:27:04;;;;;;;;;;;21.90;37.50;;;;;;5070958;28;20479;-54
2022/03/19 03:29:29;;;;;;;;;;;21.90;37.50;;;;;;5071559;28;19943;-54
2022/03/19 03:31:55;;;;;;;;;;;21.90;37.50;;;;;;5071808;28;20003;-55
2022/03/19 03:34:20;;;;;;;;;;;21.90;37.50;;;;;;5071748;28;19923;-54
2022/03/19 03:36:46;;;;;;;;;;;21.80;37.50;;;;;;5053836;28;19913;-54
2022/03/19 03:39:11;;;;;;;;;;;21.80;37.50;;;;;;5059951;28;19920;-54
2022/03/19 03:41:37;;;;;;;;;;;21.80;37.60;;;;;;5072097;28;19940;-54
2022/03/19 03:44:02;;;;;;;;;;;21.80;37.60;;;;;;5071440;28;19912;-54
2022/03/19 03:46:27;;;;;;;;;;;21.80;37.60;;;;;;5071785;28;19995;-54
2022/03/19 03:48:53;;;;;;;;;;;21.70;37.50;;;;;;5071780;28;19966;-54
2022/03/19 03:51:18;;;;;;;;;;;21.80;37.60;;;;;;5071256;28;19957;-54
2022/03/19 03:53:45;;;;;;;;;;;21.70;37.50;;;;;;5071596;28;20276;-54
2022/03/19 03:56:10;;;;;;;;;;;21.80;37.50;;;;;;5071812;28;20438;-54
2022/03/19 03:58:36;;;;;;;;;;;21.80;37.40;;;;;;5070723;28;19920;-54
2022/03/19 04:01:01;;;;;;;;;;;21.80;37.40;;;;;;5071583;28;19908;-55
2022/03/19 04:03:27;;;;;;;;;;;21.80;37.40;;;;;;5071685;28;19908;-54
2022/03/19 04:05:52;;;;;;;;;;;21.80;37.40;;;;;;5070897;28;19908;-55
2022/03/19 04:08:18;;;;;;;;;;;21.70;37.30;;;;;;5071132;28;19919;-54
2022/03/19 04:10:44;;;;;;;;;;;21.80;37.40;;;;;;5071112;28;19912;-54
2022/03/19 04:13:09;;;;;;;;;;;21.70;37.40;;;;;;5071493;28;19966;-54
2022/03/19 04:15:34;;;;;;;;;;;21.70;37.40;;;;;;5071027;28;20011;-54
2022/03/19 04:18:01;;;;;;;;;;;21.70;37.40;;;;;;5071362;28;19924;-54
2022/03/19 04:20:27;;;;;;;;;;;21.70;37.40;;;;;;5070849;28;19931;-54
2022/03/19 04:22:52;;;;;;;;;;;21.70;37.40;;;;;;5071325;28;19909;-54
2022/03/19 04:25:19;;;;;;;;;;;21.70;37.50;;;;;;5070976;28;19912;-54
2022/03/19 04:27:48;;;;;;;;;;;21.60;37.40;;;;;;5059101;28;20360;-54
2022/03/19 04:30:14;;;;;;;;;;;21.70;37.50;;;;;;5069898;28;20065;-55
2022/03/19 04:32:40;;;;;;;;;;;21.70;37.50;;;;;;5075314;28;20498;-54
2022/03/19 04:36:29;;;;;;;;;;;21.70;37.50;;;;;;5074619;28;19912;-54
2022/03/19 04:37:51;;;;;;;;;;;21.70;37.50;;;;;;5074949;28;19924;-54
2022/03/19 04:40:17;;;;;;;;;;;21.70;37.40;;;;;;5074746;28;20306;-56
2022/03/19 04:42:42;;;;;;;;;;;21.70;37.40;;;;;;5074333;28;20026;-54
2022/03/19 04:45:08;;;;;;;;;;;21.70;37.40;;;;;;5074468;28;19913;-54
2022/03/19 04:47:33;;;;;;;;;;;21.70;37.30;;;;;;5075018;28;19909;-54
2022/03/19 04:50:00;;;;;;;;;;;21.70;37.30;;;;;;5074161;28;19995;-54
2022/03/19 04:52:25;;;;;;;;;;;21.70;37.30;;;;;;5074586;28;19912;-54
2022/03/19 04:54:51;;;;;;;;;;;21.70;37.20;;;;;;5074419;28;19923;-54
2022/03/19 04:57:16;;;;;;;;;;;21.70;37.20;;;;;;5066062;28;20018;-54
2022/03/19 04:59:42;;;;;;;;;;;21.70;37.30;;;;;;5069232;28;20284;-54
2022/03/19 05:02:07;;;;;;;;;;;21.70;37.30;;;;;;5074014;28;19920;-55
2022/03/19 05:04:33;;;;;;;;;;;21.70;37.40;;;;;;5074330;28;20015;-53
2022/03/19 05:06:58;;;;;;;;;;;21.70;37.40;;;;;;5073765;28;19920;-54
2022/03/19 05:12:08;;;;;;;;;;;21.70;37.30;;;;;;5074121;28;19962;-54
2022/03/19 05:14:33;;;;;;;;;;;21.70;37.10;;;;;;5074089;28;19917;-53
2022/03/19 05:16:59;;;;;;;;;;;21.70;37.00;;;;;;5074136;28;19920;-54
2022/03/19 05:19:25;;;;;;;;;;;21.70;37.00;;;;;;5074156;28;19916;-54
2022/03/19 05:21:50;;;;;;;;;;;21.70;37.00;;;;;;5073913;28;19950;-54
2022/03/19 05:24:16;;;;;;;;;;;21.70;37.10;;;;;;5073974;28;20004;-54
2022/03/19 05:26:41;;;;;;;;;;;21.70;37.00;;;;;;5072680;28;19920;-54
2022/03/19 05:29:07;;;;;;;;;;;21.70;37.00;;;;;;5073826;28;19971;-54
2022/03/19 05:31:32;;;;;;;;;;;21.70;37.00;;;;;;5074138;28;19909;-54
2022/03/19 05:36:42;;;;;;;;;;;21.60;37.00;;;;;;5056383;28;19959;-54
2022/03/19 05:39:07;;;;;;;;;;;21.60;37.00;;;;;;5063072;28;20030;-54
2022/03/19 05:41:33;;;;;;;;;;;21.60;37.00;;;;;;5073183;28;20073;-54
2022/03/19 05:43:58;;;;;;;;;;;21.60;37.10;;;;;;5073085;28;19994;-54
2022/03/19 05:46:24;;;;;;;;;;;21.60;37.10;;;;;;5073970;28;19908;-54
2022/03/19 05:48:49;;;;;;;;;;;21.50;37.10;;;;;;5073846;28;19938;-54
2022/03/19 05:51:15;;;;;;;;;;;21.50;37.10;;;;;;5073301;28;19993;-54
2022/03/19 05:53:41;;;;;;;;;;;21.50;37.10;;;;;;5073384;28;19917;-54
2022/03/19 05:56:06;;;;;;;;;;;21.50;37.10;;;;;;5073709;28;19915;-54
2022/03/19 05:58:31;;;;;;;;;;;21.50;37.20;;;;;;5054609;28;20339;-54
2022/03/19 06:00:57;;;;;;;;;;;21.50;37.10;;;;;;5053304;28;19999;-54
2022/03/19 06:03:22;;;;;;;;;;;21.50;37.10;;;;;;5072490;28;19913;-54
2022/03/19 06:05:48;;;;;;;;;;;21.50;37.10;;;;;;5072770;28;19908;-54
2022/03/19 06:08:13;;;;;;;;;;;21.50;37.10;;;;;;5072814;28;20392;-54
2022/03/19 06:10:39;;;;;;;;;;;21.50;37.10;;;;;;5066389;28;20361;-54
2022/03/19 06:13:05;;;;;;;;;;;21.50;37.00;;;;;;5073064;28;20292;-54
2022/03/19 06:15:30;;;;;;;;;;;21.50;37.10;;;;;;5073036;28;20277;-54
2022/03/19 06:17:56;;;;;;;;;;;21.50;37.00;;;;;;5073204;28;19916;-54
2022/03/19 06:20:22;;;;;;;;;;;21.50;37.00;;;;;;5072712;28;19955;-53
2022/03/19 06:22:49;;;;;;;;;;;21.50;37.00;;;;;;5072657;28;19917;-53
2022/03/19 06:25:14;;;;;;;;;;;21.50;37.00;;;;;;5072882;28;19915;-54
2022/03/19 06:27:40;;;;;;;;;;;21.50;36.90;;;;;;5071924;28;19920;-54
2022/03/19 06:30:05;;;;;;;;;;;21.50;36.80;;;;;;5072787;28;19909;-55
2022/03/19 06:32:31;;;;;;;;;;;21.50;36.80;;;;;;5071318;28;20007;-55
2022/03/19 06:34:56;;;;;;;;;;;21.50;36.80;;;;;;5072580;28;19931;-55
2022/03/19 06:37:22;;;;;;;;;;;21.50;36.70;;;;;;5072409;28;19917;-56
2022/03/19 06:39:49;;;;;;;;;;;21.60;36.80;;;;;;5072676;28;20307;-54
2022/03/19 06:42:15;;;;;;;;;;;21.60;36.70;;;;;;5072131;28;19920;-54
2022/03/19 06:44:40;;;;;;;;;;;21.60;36.70;;;;;;5072406;28;19919;-54
2022/03/19 06:47:06;;;;;;;;;;;21.60;36.60;;;;;;5072465;28;19935;-54
2022/03/19 06:49:31;;;;;;;;;;;21.60;36.60;;;;;;5071331;28;19935;-54
2022/03/19 06:51:57;;;;;;;;;;;21.50;36.50;;;;;;5071231;28;20287;-54
2022/03/19 06:54:22;;;;;;;;;;;21.50;36.50;;;;;;5071776;28;19943;-54
2022/03/19 06:56:48;;;;;;;;;;;21.50;36.50;;;;;;5071636;28;19935;-54
2022/03/19 06:59:13;;;;;;;;;;;21.50;36.50;;;;;;5071219;28;19962;-54
2022/03/19 07:01:39;;;;;;;;;;;21.50;36.50;;;;;;5071657;28;20438;-54
2022/03/19 07:04:05;;;;;;;;;;;21.50;36.40;;;;;;5070697;28;20007;-54
2022/03/19 07:06:30;;;;;;;;;;;21.50;36.40;;;;;;5071220;28;20396;-54
2022/03/19 07:08:56;;;;;;;;;;;21.50;36.40;;;;;;5072254;28;19912;-54
2022/03/19 07:11:22;;;;;;;;;;;21.50;36.30;;;;;;5071943;28;20003;-54
2022/03/19 07:13:47;;;;;;;;;;;21.50;36.30;;;;;;5071871;28;20011;-54
2022/03/19 07:16:15;;;;;;;;;;;21.50;36.40;;;;;;5071467;28;20501;-54
2022/03/19 07:18:40;;;;;;;;;;;21.50;36.40;;;;;;5072189;28;19985;-54
2022/03/19 07:21:06;;;;;;;;;;;21.50;36.30;;;;;;5071714;28;19955;-55
2022/03/19 07:23:31;;;;;;;;;;;21.50;36.30;;;;;;5072113;28;20407;-54
2022/03/19 07:25:59;;;;;;;;;;;21.50;36.30;;;;;;5071927;28;19912;-54
2022/03/19 07:28:25;;;;;;;;;;;21.40;36.20;;;;;;5071809;28;19916;-54
2022/03/19 07:30:50;;;;;;;;;;;21.40;36.30;;;;;;5071540;28;19917;-54
2022/03/19 07:33:16;;;;;;;;;;;21.40;36.30;;;;;;5071869;28;19913;-54
2022/03/19 07:35:41;;;;;;;;;;;21.40;36.40;;;;;;5062756;28;20018;-54
2022/03/19 07:38:08;;;;;;;;;;;21.30;36.30;;;;;;5063203;28;19923;-54
2022/03/19 07:43:17;;;;;;;;;;;21.30;36.30;;;;;;5071440;28;19935;-54
2022/03/19 07:45:43;;;;;;;;;;;21.30;36.40;;;;;;5070483;28;19916;-54
2022/03/19 07:48:08;;;;;;;;;;;21.30;36.40;;;;;;5070817;28;20394;-53
2022/03/19 07:50:34;;;;;;;;;;;21.30;36.30;;;;;;5071132;28;19909;-54
2022/03/19 07:52:59;;;;;;;;;;;21.30;36.30;;;;;;5072356;28;19913;-54
2022/03/19 07:55:25;;;;;;;;;;;21.30;36.30;;;;;;5071358;28;20003;-53
2022/03/19 07:57:51;;;;;;;;;;;21.20;36.30;;;;;;5070766;28;20579;-53
2022/03/19 08:00:16;;;;;;;;;;;21.20;36.30;;;;;;5071078;28;19916;-54
2022/03/19 08:02:42;;;;;;;;;;;21.20;36.30;;;;;;5071746;28;19908;-54
2022/03/19 08:05:07;;;;;;;;;;;21.20;36.30;;;;;;5072475;28;20316;-54
2022/03/19 08:07:34;;;;;;;;;;;21.20;36.40;;;;;;5073235;28;19928;-54
2022/03/19 08:09:59;;;;;;;;;;;21.20;36.30;;;;;;5070601;28;19966;-55
2022/03/19 08:12:25;;;;;;;;;;;21.20;36.30;;;;;;5072521;28;19916;-55
2022/03/19 08:14:51;;;;;;;;;;;21.20;36.30;;;;;;5071134;28;20014;-55
2022/03/19 08:17:17;;;;;;;;;;;21.20;36.30;;;;;;5075347;28;20372;-54
2022/03/19 08:19:42;;;;;;;;;;;21.20;36.30;;;;;;5075073;28;20037;-54
2022/03/19 08:22:09;;;;;;;;;;;21.20;36.30;;;;;;5074916;28;19957;-54
2022/03/19 08:24:35;;;;;;;;;;;21.20;36.70;;;;;;5072382;28;19940;-55
2022/03/19 08:27:01;;;;;;;;;;;21.20;36.40;;;;;;5055036;28;20373;-55
2022/03/19 08:29:26;;;;;;;;;;;21.20;36.40;;;;;;5071494;28;19912;-55
2022/03/19 08:31:52;;;;;;;;;;;21.20;36.40;;;;;;5074520;28;19920;-54
2022/03/19 08:34:17;;;;;;;;;;;21.20;36.40;;;;;;5074081;28;19958;-54
2022/03/19 08:36:43;;;;;;;;;;;21.20;36.40;;;;;;5074548;28;19918;-54
2022/03/19 08:41:52;;;;;;;;;;;21.20;36.40;;;;;;5063428;28;19931;-52
2022/03/19 08:44:17;;;;;;;;;;;21.10;36.30;;;;;;5072913;28;19912;-54
2022/03/19 08:46:43;;;;;;;;;;;21.10;36.40;;;;;;5068149;28;19967;-54
2022/03/19 08:49:08;;;;;;;;;;;21.10;36.30;;;;;;5067636;28;20194;-55
2022/03/19 08:51:40;;;;;;;;;;;21.20;36.30;;;;;;5071466;28;19912;-55
2022/03/19 08:54:09;;;;;;;;;;;21.30;36.30;;;;;;5066085;28;19962;-54
2022/03/19 08:56:35;;;;;;;;;;;21.30;36.20;;;;;;5071712;28;20292;-53
2022/03/19 08:59:00;;;;;;;;;;;21.30;36.20;;;;;;5068056;28;19920;-54
2022/03/19 09:01:26;;;;;;;;;;;21.20;36.20;;;;;;5070242;28;19913;-54
2022/03/19 09:03:51;;;;;;;;;;;21.20;36.30;;;;;;5062450;28;20340;-55
2022/03/19 09:06:17;;;;;;;;;;;21.20;36.30;;;;;;5069780;28;19927;-55
2022/03/19 09:08:43;;;;;;;;;;;21.30;36.40;;;;;;5064587;28;19908;-55
2022/03/19 09:11:09;;;;;;;;;;;21.30;36.40;;;;;;5057511;28;19996;-53
2022/03/19 09:13:36;;;;;;;;;;;21.30;36.40;;;;;;5063160;28;19916;-55
2022/03/19 09:16:03;;;;;;;;;;;21.30;36.40;;;;;;5071252;28;20000;-54
2022/03/19 09:18:28;;;;;;;;;;;21.30;36.40;;;;;;5069761;28;19924;-55
2022/03/19 09:20:53;;;;;;;;;;;21.30;36.40;;;;;;5071410;28;19966;-56
2022/03/19 09:23:19;;;;;;;;;;;21.40;36.40;;;;;;5072458;28;19916;-54
2022/03/19 09:25:44;;;;;;;;;;;21.30;36.40;;;;;;5072782;28;19916;-54
2022/03/19 09:28:10;;;;;;;;;;;21.30;36.50;;;;;;5072859;28;19926;-54
2022/03/19 09:30:35;;;;;;;;;;;21.30;36.50;;;;;;5072576;28;19909;-54
2022/03/19 09:33:01;;;;;;;;;;;21.30;36.40;;;;;;5073513;28;19916;-54
2022/03/19 09:35:26;;;;;;;;;;;21.30;36.30;;;;;;5072676;28;19909;-54
2022/03/19 09:37:52;;;;;;;;;;;21.40;36.40;;;;;;5067509;28;19921;-54
2022/03/19 09:40:18;;;;;;;;;;;21.40;36.40;;;;;;5072502;28;19919;-54
2022/03/19 09:42:50;;;;;;;;;;;21.40;36.40;;;;;;5067535;28;20364;-54
2022/03/19 09:45:19;;;;;;;;;;;21.40;36.40;;;;;;5057192;28;20303;-54
2022/03/19 09:47:45;;;;;;;;;;;21.40;36.30;;;;;;5064012;28;19917;-54
2022/03/19 09:50:10;;;;;;;;;;;21.40;36.40;;;;;;5071789;28;19920;-53
2022/03/19 09:52:36;;;;;;;;;;;21.40;36.40;;;;;;5071950;28;19921;-54
2022/03/19 09:55:01;;;;;;;;;;;21.40;36.40;;;;;;5072572;28;19921;-53
2022/03/19 09:57:27;;;;;;;;;;;21.40;36.40;;;;;;5071715;28;20007;-54
2022/03/19 09:59:52;;;;;;;;;;;21.30;36.40;;;;;;5071627;28;20159;-54
2022/03/19 10:02:18;;;;;;;;;;;21.40;36.50;;;;;;5069507;28;19912;-54
2022/03/19 10:04:43;;;;;;;;;;;21.40;36.40;;;;;;5069603;28;19923;-56
2022/03/19 10:09:56;;;;;;;;;;;21.30;36.90;;;;;;5057729;28;19916;-55
2022/03/19 10:12:29;;;;;;;;;;;21.20;37.10;;;;;;5060227;28;19931;-55
2022/03/19 10:14:55;;;;;;;;;;;21.20;37.10;;;;;;5072953;28;20344;-56
2022/03/19 10:17:28;;;;;;;;;;;21.40;37.10;;;;;;5066828;28;19981;-55
2022/03/19 10:19:55;;;;;;;;;;;21.50;37.00;;;;;;5072853;28;19919;-56
2022/03/19 10:22:28;;;;;;;;;;;21.70;36.70;;;;;;5069880;28;20349;-55
2022/03/19 10:24:57;;;;;;;;;;;21.90;36.50;;;;;;5063172;28;20380;-54
2022/03/19 10:27:22;;;;;;;;;;;22.20;36.40;;;;;;5068040;28;20360;-54
2022/03/19 10:30:00;;;;;;;;;;;22.40;36.40;;;;;;5071598;28;19913;-55
2022/03/19 10:32:26;;;;;;;;;;;22.50;36.20;;;;;;5063258;28;19924;-54
2022/03/19 10:34:53;;;;;;;;;;;22.60;35.80;;;;;;5072344;28;19967;-55
2022/03/19 10:37:34;;;;;;;;;;;22.60;35.60;;;;;;5071876;28;19912;-54
2022/03/19 10:40:00;;;;;;;;;;;22.50;35.60;;;;;;5069594;28;19939;-55
2022/03/19 10:42:25;;;;;;;;;;;22.50;35.60;;;;;;5067982;28;20368;-55
2022/03/19 10:44:52;;;;;;;;;;;22.60;35.60;;;;;;5081848;28;20304;-56
2022/03/19 10:47:20;;;;;;;;;;;22.60;35.60;;;;;;5072265;28;20017;-55
2022/03/19 10:49:46;;;;;;;;;;;22.70;35.70;;;;;;5072067;28;20039;-54
2022/03/19 10:52:13;;;;;;;;;;;22.80;35.80;;;;;;5071256;28;20031;-54
2022/03/19 10:54:38;;;;;;;;;;;22.90;35.90;;;;;;5069614;28;20277;-54
2022/03/19 10:57:05;;;;;;;;;;;22.90;36.20;;;;;;5068579;28;19932;-55
2022/03/19 10:59:31;;;;;;;;;;;22.80;35.80;;;;;;5061078;28;19908;-54
2022/03/19 11:01:56;;;;;;;;;;;22.80;35.80;;;;;;5070465;28;20027;-55
2022/03/19 11:04:22;;;;;;;;;;;22.70;35.70;;;;;;5069263;28;19916;-54
2022/03/19 11:06:50;;;;;;;;;;;22.70;35.80;;;;;;5069730;28;19921;-54
2022/03/19 11:09:15;;;;;;;;;;;22.70;35.70;;;;;;5071023;28;20338;-55
2022/03/19 11:12:10;;;;;;;;;;;22.70;35.80;;;;;;5069680;28;19912;-55
2022/03/19 11:14:37;;;;;;;;;;;22.70;35.90;;;;;;5057771;28;19917;-54
2022/03/19 11:17:24;;;;;;;;;;;22.70;35.90;;;;;;5070987;28;19930;-55
2022/03/19 11:19:49;;;;;;;;;;;22.70;35.70;;;;;;5069361;28;19919;-55
2022/03/19 11:22:15;;;;;;;;;;;22.70;35.70;;;;;;5069953;28;19916;-55
2022/03/19 11:24:43;;;;;;;;;;;22.70;35.70;;;;;;5071754;28;19942;-55
2022/03/19 11:27:09;;;;;;;;;;;22.70;35.70;;;;;;5069135;28;20392;-54
2022/03/19 11:29:34;;;;;;;;;;;22.70;35.70;;;;;;5053880;28;19919;-55
2022/03/19 11:32:01;;;;;;;;;;;22.70;35.70;;;;;;5067734;28;19916;-55
2022/03/19 11:34:30;;;;;;;;;;;22.70;35.30;;;;;;5069919;28;20019;-55
2022/03/19 11:36:56;;;;;;;;;;;22.70;34.80;;;;;;5066993;28;19931;-56
2022/03/19 11:39:21;;;;;;;;;;;22.60;34.50;;;;;;5070677;28;20273;-56
2022/03/19 11:41:47;;;;;;;;;;;22.70;34.30;;;;;;5070416;28;19957;-55
2022/03/19 11:44:19;;;;;;;;;;;22.80;34.30;;;;;;5071116;28;20368;-54
2022/03/19 11:46:53;;;;;;;;;;;22.90;34.10;;;;;;5071840;28;20257;-55
2022/03/19 11:49:39;;;;;;;;;;;23.00;33.60;;;;;;5054881;28;19909;-55
2022/03/19 11:52:04;;;;;;;;;;;23.00;33.50;;;;;;5060994;28;19916;-54
2022/03/19 11:54:42;;;;;;;;;;;23.10;33.20;;;;;;5071516;28;19912;-54
2022/03/19 11:57:08;;;;;;;;;;;23.10;32.90;;;;;;5069046;28;19932;-55
2022/03/19 11:59:41;;;;;;;;;;;23.10;32.70;;;;;;5071695;28;19909;-56
2022/03/19 12:02:08;;;;;;;;;;;23.10;32.50;;;;;;5069958;28;19912;-56
2022/03/19 12:04:47;;;;;;;;;;;23.10;32.30;;;;;;5071190;28;19915;-55
2022/03/19 12:07:12;;;;;;;;;;;23.10;32.10;;;;;;5069996;28;19929;-54
2022/03/19 12:09:41;;;;;;;;;;;23.10;32.00;;;;;;5070380;28;19924;-56
2022/03/19 12:12:15;;;;;;;;;;;23.10;31.90;;;;;;5070585;28;19912;-55
2022/03/19 12:14:41;;;;;;;;;;;23.10;31.90;;;;;;5055518;28;20656;-55
2022/03/19 12:17:20;;;;;;;;;;;23.10;31.90;;;;;;5056088;28;19935;-55
2022/03/19 12:20:00;;;;;;;;;;;23.00;32.00;;;;;;5058615;28;19923;-55
2022/03/19 12:22:39;;;;;;;;;;;23.10;32.10;;;;;;5057646;28;19928;-56
2022/03/19 12:25:14;;;;;;;;;;;23.10;32.00;;;;;;5057548;28;19912;-56
2022/03/19 12:27:40;;;;;;;;;;;23.00;31.60;;;;;;5057408;28;19920;-55
2022/03/19 12:30:06;;;;;;;;;;;23.00;31.70;;;;;;5056374;28;20299;-55
2022/03/19 12:32:43;;;;;;;;;;;23.00;31.70;;;;;;5049390;28;19927;-55
2022/03/19 12:35:09;;;;;;;;;;;22.90;31.70;;;;;;5056273;28;19919;-54
2022/03/19 12:37:45;;;;;;;;;;;22.80;31.60;;;;;;5059097;28;19925;-54
2022/03/19 12:40:11;;;;;;;;;;;22.70;31.60;;;;;;5057473;28;20007;-54
2022/03/19 12:42:36;;;;;;;;;;;22.70;31.80;;;;;;5058489;28;20007;-55
2022/03/19 12:45:03;;;;;;;;;;;22.60;31.70;;;;;;5059857;28;19916;-55
2022/03/19 12:47:29;;;;;;;;;;;22.70;31.60;;;;;;5057155;28;19929;-55
2022/03/19 12:49:54;;;;;;;;;;;22.60;31.70;;;;;;5058997;28;20438;-56
2022/03/19 12:52:20;;;;;;;;;;;22.60;31.60;;;;;;5060303;28;19952;-55
2022/03/19 12:54:46;;;;;;;;;;;22.60;31.60;;;;;;5060539;28;20858;-55
2022/03/19 12:57:12;;;;;;;;;;;22.70;31.60;;;;;;5062560;28;19948;-55
2022/03/19 12:59:45;;;;;;;;;;;22.70;31.30;;;;;;5061413;28;19915;-55
2022/03/19 13:02:11;;;;;;;;;;;22.90;31.40;;;;;;5061189;28;19917;-55
2022/03/19 13:04:38;;;;;;;;;;;22.90;31.20;;;;;;5060390;28;19917;-55
2022/03/19 13:07:04;;;;;;;;;;;23.00;31.00;;;;;;5058691;28;20702;-55
2022/03/19 13:09:31;;;;;;;;;;;23.00;30.80;;;;;;5062649;28;19979;-55
2022/03/19 13:11:57;;;;;;;;;;;23.10;30.80;;;;;;5060342;28;19912;-55
2022/03/19 13:14:24;;;;;;;;;;;23.10;30.60;;;;;;5061109;28;19917;-54
2022/03/19 13:16:53;;;;;;;;;;;23.20;30.60;;;;;;5061371;28;19913;-55
2022/03/19 13:19:19;;;;;;;;;;;23.20;30.50;;;;;;5057825;28;19970;-55
2022/03/19 13:21:47;;;;;;;;;;;23.30;30.50;;;;;;5062255;28;19916;-56
2022/03/19 13:24:13;;;;;;;;;;;23.30;30.30;;;;;;5060245;28;20564;-55
2022/03/19 13:26:38;;;;;;;;;;;23.30;30.20;;;;;;5059265;28;19916;-54
2022/03/19 13:29:08;;;;;;;;;;;23.30;30.20;;;;;;5061020;28;19938;-54
2022/03/19 13:31:34;;;;;;;;;;;23.30;30.20;;;;;;5058383;28;19920;-54
2022/03/19 13:34:00;;;;;;;;;;;23.30;30.10;;;;;;5061281;28;20020;-54
2022/03/19 13:36:27;;;;;;;;;;;23.30;30.10;;;;;;5060236;28;19916;-54
2022/03/19 13:38:54;;;;;;;;;;;23.20;30.30;;;;;;5060990;28;20054;-55
2022/03/19 13:41:19;;;;;;;;;;;23.10;30.40;;;;;;5061412;28;19952;-55
2022/03/19 13:43:45;;;;;;;;;;;23.00;30.50;;;;;;5060017;28;20007;-55
2022/03/19 13:46:14;;;;;;;;;;;23.00;30.70;;;;;;5061792;28;19920;-55
2022/03/19 13:48:39;;;;;;;;;;;22.90;30.60;;;;;;5059825;28;19920;-54
2022/03/19 13:51:05;;;;;;;;;;;22.80;30.60;;;;;;5059657;28;20217;-54
2022/03/19 13:53:47;;;;;;;;;;;22.80;30.70;;;;;;5059444;28;19975;-55
2022/03/19 13:56:12;;;;;;;;;;;22.80;30.80;;;;;;5060732;28;19920;-55
2022/03/19 13:58:38;;;;;;;;;;;22.80;30.80;;;;;;5060231;28;19977;-55
2022/03/19 14:01:13;;;;;;;;;;;22.70;30.80;;;;;;5059875;28;20719;-54
2022/03/19 14:03:40;;;;;;;;;;;22.70;31.60;;;;;;5059368;28;19916;-55
2022/03/19 14:06:09;;;;;;;;;;;22.70;30.90;;;;;;5058025;28;20275;-55
2022/03/19 14:08:36;;;;;;;;;;;22.80;31.00;;;;;;5061576;28;20149;-54
2022/03/19 14:11:01;;;;;;;;;;;22.80;31.00;;;;;;5059212;28;19912;-55
2022/03/19 14:13:33;;;;;;;;;;;22.80;31.10;;;;;;5059848;28;19935;-55
2022/03/19 14:15:59;;;;;;;;;;;22.80;31.20;;;;;;5059231;28;20365;-55
2022/03/19 14:18:31;;;;;;;;;;;22.90;31.40;;;;;;5056533;28;19928;-55
2022/03/19 14:20:59;;;;;;;;;;;23.00;31.40;;;;;;5059792;28;20357;-55
2022/03/19 14:23:25;;;;;;;;;;;23.10;31.40;;;;;;5056016;28;20372;-55
2022/03/19 14:25:50;;;;;;;;;;;23.20;31.30;;;;;;5058071;28;19923;-54
2022/03/19 14:28:16;;;;;;;;;;;23.30;31.40;;;;;;5071192;28;19912;-55